Time;durP1;ratioP1;P1;durP2;ratioP2;P2;SDS_P1;SDS_P2;PMS_P1;PMS_P2;Temp;Humidity;BMP_temperature;BMP_pressure;BME280_temperature;BME280_humidity;BME280_pressure;Samples;Min_cycle;Max_cycle;Signal;HPM_P1;HPM_P2
2022/07/19 00:01:43;;;;;;;2.70;2.37;;;;;;;;;;5025108;28;20229;-76
2022/07/19 00:04:09;;;;;;;3.53;2.60;;;;;;;;;;5025988;28;20186;-76
2022/07/19 00:06:35;;;;;;;3.93;2.20;;;;;;;;;;5025966;28;20222;-76
2022/07/19 00:09:02;;;;;;;4.50;2.47;;;;;;;;;;5026020;28;20220;-77
2022/07/19 00:11:28;;;;;;;3.50;2.20;;;;;;;;;;5046519;28;20202;-76
2022/07/19 00:13:54;;;;;;;3.80;2.37;;;;;;;;;;5022552;28;20656;-77
2022/07/19 00:16:21;;;;;;;3.30;2.50;;;;;;;;;;5027203;28;20232;-77
2022/07/19 00:18:47;;;;;;;3.83;2.43;;;;;;;;;;5025728;28;20223;-77
2022/07/19 00:21:13;;;;;;;5.03;2.47;;;;;;;;;;5027973;28;20563;-77
2022/07/19 00:23:39;;;;;;;4.03;2.60;;;;;;;;;;5024975;28;20203;-76
2022/07/19 00:26:06;;;;;;;3.97;2.73;;;;;;;;;;5031410;28;20261;-76
2022/07/19 00:28:32;;;;;;;4.43;2.53;;;;;;;;;;5027024;28;20284;-77
2022/07/19 00:30:58;;;;;;;2.83;2.53;;;;;;;;;;5027363;28;20715;-77
2022/07/19 00:33:24;;;;;;;2.80;2.50;;;;;;;;;;5030032;28;20174;-77
2022/07/19 00:35:51;;;;;;;2.50;2.30;;;;;;;;;;5028025;28;20563;-77
2022/07/19 00:38:17;;;;;;;4.10;2.60;;;;;;;;;;5041992;28;20260;-77
2022/07/19 00:40:43;;;;;;;3.60;2.40;;;;;;;;;;5024908;28;20191;-77
2022/07/19 00:43:10;;;;;;;3.33;2.60;;;;;;;;;;5023227;28;20202;-77
2022/07/19 00:45:41;;;;;;;4.53;2.43;;;;;;;;;;5026638;28;20175;-77
2022/07/19 00:48:08;;;;;;;3.97;2.53;;;;;;;;;;5031737;28;20686;-77
2022/07/19 00:50:34;;;;;;;3.37;2.70;;;;;;;;;;5030322;28;20257;-77
2022/07/19 00:53:04;;;;;;;5.73;2.60;;;;;;;;;;5034403;28;20210;-77
2022/07/19 00:55:31;;;;;;;3.00;2.67;;;;;;;;;;5031149;28;20190;-77
2022/07/19 00:57:58;;;;;;;5.73;2.23;;;;;;;;;;5031806;28;20275;-77
2022/07/19 01:00:25;;;;;;;3.77;2.50;;;;;;;;;;5032185;28;20240;-78
2022/07/19 01:02:52;;;;;;;6.93;2.80;;;;;;;;;;5027680;28;20207;-77
2022/07/19 01:05:19;;;;;;;3.20;2.60;;;;;;;;;;5030432;28;20175;-77
2022/07/19 01:07:45;;;;;;;3.13;2.73;;;;;;;;;;5029957;28;20909;-77
2022/07/19 01:10:12;;;;;;;3.70;2.60;;;;;;;;;;5030643;28;20676;-77
2022/07/19 01:12:38;;;;;;;4.40;2.47;;;;;;;;;;5028359;28;20211;-77
2022/07/19 01:15:15;;;;;;;6.33;2.70;;;;;;;;;;5023368;28;20760;-77
2022/07/19 01:17:41;;;;;;;3.33;2.60;;;;;;;;;;5028942;28;20211;-77
2022/07/19 01:20:07;;;;;;;3.30;2.60;;;;;;;;;;5030374;28;20269;-77
2022/07/19 01:22:33;;;;;;;3.90;2.60;;;;;;;;;;5029025;28;20210;-77
2022/07/19 01:25:00;;;;;;;3.30;2.70;;;;;;;;;;5029256;28;20535;-77
2022/07/19 01:27:26;;;;;;;3.63;2.73;;;;;;;;;;5026460;28;20249;-77
2022/07/19 01:29:52;;;;;;;2.40;2.20;;;;;;;;;;5025496;28;20755;-77
2022/07/19 01:32:18;;;;;;;4.63;2.73;;;;;;;;;;5023959;28;20210;-77
2022/07/19 01:34:44;;;;;;;6.07;3.20;;;;;;;;;;5028490;28;20189;-77
2022/07/19 01:37:10;;;;;;;3.83;2.73;;;;;;;;;;5029200;28;20186;-77
2022/07/19 01:39:36;;;;;;;2.90;2.60;;;;;;;;;;5028163;28;20235;-77
2022/07/19 01:42:03;;;;;;;3.77;2.60;;;;;;;;;;5027606;28;20194;-77
2022/07/19 01:44:29;;;;;;;3.43;2.90;;;;;;;;;;5026924;28;20602;-76
2022/07/19 01:46:55;;;;;;;3.00;2.70;;;;;;;;;;5021277;28;20225;-77
2022/07/19 01:49:21;;;;;;;5.47;2.40;;;;;;;;;;5008014;28;20187;-77
2022/07/19 01:51:47;;;;;;;4.07;2.70;;;;;;;;;;5026312;28;20297;-77
2022/07/19 01:54:14;;;;;;;2.60;2.40;;;;;;;;;;5031069;28;20190;-77
2022/07/19 01:56:43;;;;;;;5.97;2.77;;;;;;;;;;5035221;28;20192;-77
2022/07/19 01:59:10;;;;;;;4.43;2.40;;;;;;;;;;5029637;28;20166;-77
2022/07/19 02:01:36;;;;;;;4.97;2.60;;;;;;;;;;5028468;28;20206;-77
2022/07/19 02:04:02;;;;;;;3.83;2.80;;;;;;;;;;5030521;28;20179;-77
2022/07/19 02:06:28;;;;;;;3.07;2.70;;;;;;;;;;5023979;28;20189;-77
2022/07/19 02:08:54;;;;;;;7.13;2.80;;;;;;;;;;5029985;28;20245;-77
2022/07/19 02:11:35;;;;;;;4.00;2.70;;;;;;;;;;5029131;28;20202;-77
2022/07/19 02:14:02;;;;;;;5.97;2.30;;;;;;;;;;5026944;28;20201;-77
2022/07/19 02:16:29;;;;;;;4.73;2.57;;;;;;;;;;5025728;28;20254;-77
2022/07/19 02:18:55;;;;;;;3.60;2.57;;;;;;;;;;5029402;28;20609;-77
2022/07/19 02:21:21;;;;;;;3.00;2.50;;;;;;;;;;5024726;28;20207;-77
2022/07/19 02:23:47;;;;;;;3.77;2.70;;;;;;;;;;5026315;28;20661;-77
2022/07/19 02:26:13;;;;;;;3.37;2.57;;;;;;;;;;5028681;28;20206;-77
2022/07/19 02:28:39;;;;;;;3.57;2.70;;;;;;;;;;5028581;28;20215;-77
2022/07/19 02:31:06;;;;;;;4.20;2.80;;;;;;;;;;5026920;28;20252;-77
2022/07/19 02:33:32;;;;;;;4.00;2.73;;;;;;;;;;5031128;28;20182;-77
2022/07/19 02:35:58;;;;;;;5.53;2.70;;;;;;;;;;5025375;28;20724;-77
2022/07/19 02:38:24;;;;;;;4.83;2.70;;;;;;;;;;5024559;28;20190;-77
2022/07/19 02:40:50;;;;;;;4.57;2.90;;;;;;;;;;5028003;28;20178;-77
2022/07/19 02:43:17;;;;;;;3.23;2.80;;;;;;;;;;5027427;28;20187;-77
2022/07/19 02:45:43;;;;;;;4.67;2.93;;;;;;;;;;5026274;28;20182;-77
2022/07/19 02:48:09;;;;;;;4.57;2.87;;;;;;;;;;5024999;28;20810;-77
2022/07/19 02:50:36;;;;;;;4.80;3.00;;;;;;;;;;5029472;28;20269;-77
2022/07/19 02:53:02;;;;;;;4.30;2.47;;;;;;;;;;5028439;28;20217;-77
2022/07/19 02:55:28;;;;;;;3.30;2.87;;;;;;;;;;5025337;28;20197;-77
2022/07/19 02:57:55;;;;;;;4.40;2.90;;;;;;;;;;5030336;28;20175;-77
2022/07/19 03:00:21;;;;;;;5.70;3.30;;;;;;;;;;5024933;28;20208;-77
2022/07/19 03:02:47;;;;;;;5.10;2.90;;;;;;;;;;5024844;28;20285;-77
2022/07/19 03:05:13;;;;;;;4.63;2.73;;;;;;;;;;5022966;28;20183;-77
2022/07/19 03:07:39;;;;;;;3.33;2.47;;;;;;;;;;5018119;28;20222;-77
2022/07/19 03:10:06;;;;;;;3.30;2.77;;;;;;;;;;5029054;28;20237;-77
2022/07/19 03:12:32;;;;;;;3.37;2.70;;;;;;;;;;5029439;28;20244;-77
2022/07/19 03:14:58;;;;;;;3.43;2.70;;;;;;;;;;5028744;28;20996;-77
2022/07/19 03:17:25;;;;;;;3.37;2.80;;;;;;;;;;5028595;28;20179;-77
2022/07/19 03:19:51;;;;;;;4.40;2.67;;;;;;;;;;5030277;28;20205;-77
2022/07/19 03:22:17;;;;;;;4.90;2.63;;;;;;;;;;5029262;28;20270;-77
2022/07/19 03:24:43;;;;;;;3.93;2.60;;;;;;;;;;5028904;28;20186;-77
2022/07/19 03:27:09;;;;;;;3.93;2.50;;;;;;;;;;5027073;28;20279;-77
2022/07/19 03:29:35;;;;;;;4.47;2.77;;;;;;;;;;5024596;28;20213;-77
2022/07/19 03:32:01;;;;;;;4.07;3.00;;;;;;;;;;5025198;28;20195;-77
2022/07/19 03:34:28;;;;;;;4.73;2.80;;;;;;;;;;5027308;28;20186;-77
2022/07/19 03:36:54;;;;;;;3.57;2.90;;;;;;;;;;5022814;28;20178;-77
2022/07/19 03:39:21;;;;;;;3.43;2.70;;;;;;;;;;5029606;28;20623;-77
2022/07/19 03:41:47;;;;;;;4.53;2.63;;;;;;;;;;5030063;28;20216;-77
2022/07/19 03:44:14;;;;;;;3.90;2.73;;;;;;;;;;5025600;28;20178;-77
2022/07/19 03:46:40;;;;;;;4.33;3.00;;;;;;;;;;5029676;28;20213;-78
2022/07/19 03:49:06;;;;;;;5.90;3.10;;;;;;;;;;5023959;28;20214;-77
2022/07/19 03:51:32;;;;;;;5.63;3.70;;;;;;;;;;5027975;28;20214;-77
2022/07/19 03:53:58;;;;;;;4.97;3.80;;;;;;;;;;5008243;28;20186;-77
2022/07/19 03:56:24;;;;;;;4.60;3.40;;;;;;;;;;5029675;28;20178;-77
2022/07/19 03:58:50;;;;;;;7.23;3.33;;;;;;;;;;5028255;28;20273;-77
2022/07/19 04:01:17;;;;;;;4.33;3.60;;;;;;;;;;5032200;28;20545;-77
2022/07/19 04:03:43;;;;;;;6.60;3.70;;;;;;;;;;5028877;28;20180;-77
2022/07/19 04:06:11;;;;;;;6.53;4.10;;;;;;;;;;5030736;28;20178;-77
2022/07/19 04:08:38;;;;;;;6.10;4.00;;;;;;;;;;5031306;28;20226;-77
2022/07/19 04:11:04;;;;;;;6.40;3.70;;;;;;;;;;5030480;28;20195;-77
2022/07/19 04:13:32;;;;;;;4.80;3.40;;;;;;;;;;5031734;28;20588;-77
2022/07/19 04:15:58;;;;;;;4.13;3.47;;;;;;;;;;5021461;28;20533;-77
2022/07/19 04:18:25;;;;;;;6.83;3.90;;;;;;;;;;5032458;28;20185;-77
2022/07/19 04:20:51;;;;;;;6.40;3.80;;;;;;;;;;5026201;28;20256;-77
2022/07/19 04:23:18;;;;;;;4.60;3.67;;;;;;;;;;5029126;28;20582;-77
2022/07/19 04:25:44;;;;;;;6.97;4.00;;;;;;;;;;5028435;28;20193;-77
2022/07/19 04:28:10;;;;;;;7.47;4.00;;;;;;;;;;5028228;28;20272;-77
2022/07/19 04:30:36;;;;;;;6.80;3.87;;;;;;;;;;5032207;28;20186;-77
2022/07/19 04:33:02;;;;;;;4.10;3.40;;;;;;;;;;5032687;28;20282;-77
2022/07/19 04:35:29;;;;;;;6.07;3.80;;;;;;;;;;5030752;28;20178;-77
2022/07/19 04:37:55;;;;;;;6.10;3.90;;;;;;;;;;5032095;28;20182;-77
2022/07/19 04:40:21;;;;;;;5.57;4.13;;;;;;;;;;5032205;28;20715;-77
2022/07/19 04:42:47;;;;;;;7.77;3.90;;;;;;;;;;5023412;28;20203;-77
2022/07/19 04:45:13;;;;;;;5.63;3.67;;;;;;;;;;5028898;28;20189;-77
2022/07/19 04:47:40;;;;;;;5.77;3.63;;;;;;;;;;5032803;28;20281;-77
2022/07/19 04:50:06;;;;;;;7.43;4.07;;;;;;;;;;5029336;28;20250;-77
2022/07/19 04:52:32;;;;;;;7.67;3.77;;;;;;;;;;5030487;28;20265;-77
2022/07/19 04:54:58;;;;;;;5.63;3.53;;;;;;;;;;5025925;28;20694;-77
2022/07/19 04:57:25;;;;;;;6.20;3.93;;;;;;;;;;5024825;28;20191;-77
2022/07/19 04:59:51;;;;;;;6.30;3.70;;;;;;;;;;5032463;28;20209;-77
2022/07/19 05:02:17;;;;;;;6.40;4.23;;;;;;;;;;5027211;28;20259;-77
2022/07/19 05:04:43;;;;;;;5.43;4.13;;;;;;;;;;5030250;28;20609;-77
2022/07/19 05:07:09;;;;;;;5.30;3.70;;;;;;;;;;5030625;28;20215;-77
2022/07/19 05:09:35;;;;;;;6.07;3.80;;;;;;;;;;5027955;28;20175;-77
2022/07/19 05:12:05;;;;;;;6.17;4.30;;;;;;;;;;5035426;28;20201;-77
2022/07/19 05:14:32;;;;;;;7.43;3.83;;;;;;;;;;5028498;28;20202;-77
2022/07/19 05:16:58;;;;;;;6.17;4.07;;;;;;;;;;5040644;28;20182;-77
2022/07/19 05:19:24;;;;;;;5.97;4.17;;;;;;;;;;5033142;28;20304;-77
2022/07/19 05:21:50;;;;;;;6.63;3.90;;;;;;;;;;5034830;28;20542;-77
2022/07/19 05:24:17;;;;;;;6.83;3.90;;;;;;;;;;5030780;28;20179;-80
2022/07/19 05:26:43;;;;;;;5.43;3.90;;;;;;;;;;5034732;28;20174;-81
2022/07/19 05:29:10;;;;;;;6.63;3.77;;;;;;;;;;5030083;28;20167;-81
2022/07/19 05:31:37;;;;;;;5.37;4.10;;;;;;;;;;5029929;28;20194;-78
2022/07/19 05:34:03;;;;;;;9.40;4.50;;;;;;;;;;5034188;28;20178;-79
2022/07/19 05:36:30;;;;;;;7.83;4.43;;;;;;;;;;5031380;28;20551;-84
2022/07/19 05:38:56;;;;;;;7.43;4.60;;;;;;;;;;5008418;28;20194;-79
2022/07/19 05:41:22;;;;;;;5.67;3.67;;;;;;;;;;5032906;28;20206;-77
2022/07/19 05:43:49;;;;;;;4.70;3.60;;;;;;;;;;5029819;28;20229;-78
2022/07/19 05:46:16;;;;;;;7.80;4.23;;;;;;;;;;5034385;28;20179;-80
2022/07/19 05:48:43;;;;;;;7.47;4.03;;;;;;;;;;5035167;28;20193;-81
2022/07/19 05:51:09;;;;;;;7.47;4.37;;;;;;;;;;5032757;28;20343;-81
2022/07/19 05:53:36;;;;;;;6.57;4.20;;;;;;;;;;5031149;28;20197;-81
2022/07/19 05:56:02;;;;;;;6.90;3.90;;;;;;;;;;5027850;28;20692;-81
2022/07/19 05:58:29;;;;;;;7.47;4.20;;;;;;;;;;5013031;28;20710;-81
2022/07/19 06:03:40;;;;;;;10.17;4.03;;;;;;;;;;5037025;28;20190;-81
2022/07/19 06:06:06;;;;;;;5.20;4.00;;;;;;;;;;5032459;28;20179;-81
2022/07/19 06:08:33;;;;;;;7.73;4.30;;;;;;;;;;5040423;28;20305;-81
2022/07/19 06:10:59;;;;;;;7.27;4.10;;;;;;;;;;5029354;28;20178;-81
2022/07/19 06:13:25;;;;;;;5.40;3.70;;;;;;;;;;5027861;28;20183;-81
2022/07/19 06:15:52;;;;;;;10.43;4.10;;;;;;;;;;5038670;28;20217;-81
2022/07/19 06:18:18;;;;;;;7.20;3.97;;;;;;;;;;5034259;28;20675;-81
2022/07/19 06:20:45;;;;;;;6.07;4.30;;;;;;;;;;5040778;28;20523;-80
2022/07/19 06:23:11;;;;;;;6.43;4.30;;;;;;;;;;5032068;28;20269;-79
2022/07/19 06:25:37;;;;;;;7.83;4.37;;;;;;;;;;5035907;28;20557;-79
2022/07/19 06:28:03;;;;;;;7.13;3.47;;;;;;;;;;5027772;28;20296;-80
2022/07/19 06:30:30;;;;;;;4.83;4.00;;;;;;;;;;5035732;28;20190;-79
2022/07/19 06:32:58;;;;;;;4.70;3.67;;;;;;;;;;5027940;28;20230;-79
2022/07/19 06:35:24;;;;;;;7.83;4.17;;;;;;;;;;5032910;28;20190;-79
2022/07/19 06:37:50;;;;;;;4.73;3.30;;;;;;;;;;5037386;28;20172;-79
2022/07/19 06:40:16;;;;;;;8.73;3.93;;;;;;;;;;5031182;28;20178;-79
2022/07/19 06:42:43;;;;;;;5.97;4.03;;;;;;;;;;5028422;28;20677;-80
2022/07/19 06:45:09;;;;;;;6.03;4.10;;;;;;;;;;5028598;28;20201;-80
2022/07/19 06:47:36;;;;;;;4.73;3.50;;;;;;;;;;5029595;28;20237;-81
2022/07/19 06:50:02;;;;;;;6.97;3.30;;;;;;;;;;5034236;28;20185;-80
2022/07/19 06:52:29;;;;;;;5.27;3.73;;;;;;;;;;5040076;28;20697;-80
2022/07/19 06:54:55;;;;;;;4.80;3.57;;;;;;;;;;5029284;28;20178;-80
2022/07/19 06:57:21;;;;;;;4.43;3.47;;;;;;;;;;5028461;28;20227;-78
2022/07/19 06:59:48;;;;;;;6.17;3.47;;;;;;;;;;5035813;28;20533;-79
2022/07/19 07:02:14;;;;;;;9.57;3.20;;;;;;;;;;5030740;28;20213;-79
2022/07/19 07:04:40;;;;;;;5.80;3.17;;;;;;;;;;5023502;28;20260;-78
2022/07/19 07:07:06;;;;;;;4.27;3.10;;;;;;;;;;5022746;28;20202;-80
2022/07/19 07:09:32;;;;;;;3.87;3.30;;;;;;;;;;5027580;28;20179;-76
2022/07/19 07:11:59;;;;;;;5.20;3.13;;;;;;;;;;5026493;28;20278;-76
2022/07/19 07:14:25;;;;;;;6.17;2.90;;;;;;;;;;5028916;28;20618;-80
2022/07/19 07:16:51;;;;;;;6.03;3.27;;;;;;;;;;5030793;28;20190;-73
2022/07/19 07:19:17;;;;;;;6.00;3.03;;;;;;;;;;5020111;28;20178;-74
2022/07/19 07:21:44;;;;;;;8.33;2.90;;;;;;;;;;5016600;28;20256;-75
2022/07/19 07:24:10;;;;;;;6.20;3.17;;;;;;;;;;5021548;28;20201;-75
2022/07/19 07:26:36;;;;;;;3.47;2.83;;;;;;;;;;5022828;28;20181;-75
2022/07/19 07:29:02;;;;;;;4.00;2.70;;;;;;;;;;5021180;28;20293;-73
2022/07/19 07:31:29;;;;;;;3.43;2.80;;;;;;;;;;5024586;28;20209;-75
2022/07/19 07:33:55;;;;;;;5.50;2.90;;;;;;;;;;5023718;28;20236;-75
2022/07/19 07:36:21;;;;;;;4.47;3.17;;;;;;;;;;5028695;28;20171;-75
2022/07/19 07:38:47;;;;;;;3.60;3.30;;;;;;;;;;5026665;28;20316;-74
2022/07/19 07:41:14;;;;;;;5.93;3.20;;;;;;;;;;5027990;28;20203;-75
2022/07/19 07:43:40;;;;;;;4.93;3.27;;;;;;;;;;5028109;28;20186;-74
2022/07/19 07:46:06;;;;;;;4.83;2.93;;;;;;;;;;5025041;28;20174;-74
2022/07/19 07:48:32;;;;;;;4.67;3.20;;;;;;;;;;5026012;28;20211;-79
2022/07/19 07:50:58;;;;;;;5.13;3.40;;;;;;;;;;5028125;28;20192;-77
2022/07/19 07:53:24;;;;;;;5.10;3.17;;;;;;;;;;5028215;28;20297;-76
2022/07/19 07:55:51;;;;;;;4.50;2.87;;;;;;;;;;5029009;28;20207;-77
2022/07/19 07:58:17;;;;;;;4.40;2.90;;;;;;;;;;5031382;28;20178;-78
2022/07/19 08:00:43;;;;;;;5.47;3.10;;;;;;;;;;5027905;28;20193;-78
2022/07/19 08:03:09;;;;;;;6.00;3.00;;;;;;;;;;5032635;28;20190;-78
2022/07/19 08:05:35;;;;;;;5.80;2.93;;;;;;;;;;5026714;28;20175;-78
2022/07/19 08:08:02;;;;;;;3.73;2.90;;;;;;;;;;5029488;28;20292;-78
2022/07/19 08:10:31;;;;;;;4.00;2.50;;;;;;;;;;5034812;28;20688;-79
2022/07/19 08:12:57;;;;;;;3.80;2.70;;;;;;;;;;5033011;28;20248;-81
2022/07/19 08:15:24;;;;;;;4.00;2.70;;;;;;;;;;5034938;28;20202;-79
2022/07/19 08:17:50;;;;;;;3.23;2.53;;;;;;;;;;5018381;28;20178;-80
2022/07/19 08:20:16;;;;;;;3.67;2.80;;;;;;;;;;5029074;28;20190;-78
2022/07/19 08:22:42;;;;;;;3.00;2.70;;;;;;;;;;5013357;28;20215;-78
2022/07/19 08:25:09;;;;;;;4.50;2.80;;;;;;;;;;5024694;28;20280;-77
2022/07/19 08:27:35;;;;;;;5.60;2.70;;;;;;;;;;5024662;28;20287;-77
2022/07/19 08:30:03;;;;;;;3.60;2.50;;;;;;;;;;5028682;28;20189;-77
2022/07/19 08:32:29;;;;;;;5.70;2.80;;;;;;;;;;5029089;28;20694;-78
2022/07/19 08:34:56;;;;;;;3.73;2.80;;;;;;;;;;5022135;28;20187;-78
2022/07/19 08:37:22;;;;;;;3.37;2.70;;;;;;;;;;5030054;28;20181;-79
2022/07/19 08:39:48;;;;;;;3.63;2.67;;;;;;;;;;5025569;28;20690;-79
2022/07/19 08:42:17;;;;;;;3.13;2.80;;;;;;;;;;5031122;28;20207;-78
2022/07/19 08:44:43;;;;;;;3.40;3.00;;;;;;;;;;5031563;28;20178;-79
2022/07/19 08:47:11;;;;;;;4.23;2.73;;;;;;;;;;5029197;28;20205;-79
2022/07/19 08:49:37;;;;;;;4.87;2.70;;;;;;;;;;5025997;28;20176;-79
2022/07/19 08:52:04;;;;;;;3.43;2.80;;;;;;;;;;5032657;28;20212;-78
2022/07/19 08:54:30;;;;;;;4.50;2.80;;;;;;;;;;5038035;28;20246;-78
2022/07/19 08:59:42;;;;;;;3.60;2.80;;;;;;;;;;5030617;28;20181;-78
2022/07/19 09:02:08;;;;;;;6.53;3.00;;;;;;;;;;5030594;28;20284;-78
2022/07/19 09:04:34;;;;;;;5.03;2.87;;;;;;;;;;5029076;28;20192;-78
2022/07/19 09:07:02;;;;;;;3.13;2.70;;;;;;;;;;5025233;28;20264;-78
2022/07/19 09:09:30;;;;;;;4.87;2.73;;;;;;;;;;5021598;28;20698;-78
2022/07/19 09:11:57;;;;;;;4.27;2.90;;;;;;;;;;5029319;28;20198;-79
2022/07/19 09:14:27;;;;;;;4.97;2.93;;;;;;;;;;5017981;28;20182;-79
2022/07/19 09:16:53;;;;;;;3.27;2.73;;;;;;;;;;5027670;28;20205;-78
2022/07/19 09:19:20;;;;;;;4.77;2.87;;;;;;;;;;5025716;28;20210;-78
2022/07/19 09:21:54;;;;;;;5.47;3.00;;;;;;;;;;5026622;28;20200;-78
2022/07/19 09:24:21;;;;;;;4.40;2.77;;;;;;;;;;5031593;28;20194;-78
2022/07/19 09:26:59;;;;;;;4.57;2.60;;;;;;;;;;5033506;28;20194;-78
2022/07/19 09:29:27;;;;;;;6.23;2.60;;;;;;;;;;5027198;28;20217;-78
2022/07/19 09:32:02;;;;;;;4.63;2.90;;;;;;;;;;5040740;28;20277;-78
2022/07/19 09:34:32;;;;;;;4.47;2.90;;;;;;;;;;5026579;28;20677;-78
2022/07/19 09:37:10;;;;;;;3.83;3.00;;;;;;;;;;5031592;28;20186;-78
2022/07/19 09:39:41;;;;;;;3.23;2.70;;;;;;;;;;5028225;28;20198;-78
2022/07/19 09:42:07;;;;;;;4.80;2.50;;;;;;;;;;5029885;28;20229;-78
2022/07/19 09:44:34;;;;;;;5.17;2.63;;;;;;;;;;5016394;28;20187;-78
2022/07/19 09:47:00;;;;;;;6.43;2.57;;;;;;;;;;5026616;28;20646;-78
2022/07/19 09:49:26;;;;;;;3.83;2.87;;;;;;;;;;5026762;28;20185;-78
2022/07/19 09:51:53;;;;;;;3.73;2.77;;;;;;;;;;5027307;28;20693;-79
2022/07/19 09:54:20;;;;;;;4.27;2.23;;;;;;;;;;5030898;28;20183;-79
2022/07/19 09:56:48;;;;;;;3.37;2.60;;;;;;;;;;5033558;28;20680;-79
2022/07/19 09:59:14;;;;;;;3.80;2.27;;;;;;;;;;5038276;28;20240;-79
2022/07/19 10:01:41;;;;;;;4.40;2.70;;;;;;;;;;5032586;28;20203;-79
2022/07/19 10:04:07;;;;;;;2.63;2.43;;;;;;;;;;5022941;28;20632;-79
2022/07/19 10:06:34;;;;;;;2.57;2.30;;;;;;;;;;5035555;28;20200;-79
2022/07/19 10:09:01;;;;;;;3.37;2.47;;;;;;;;;;5028006;28;20296;-79
2022/07/19 10:11:30;;;;;;;3.50;2.20;;;;;;;;;;5032482;28;20203;-78
2022/07/19 10:13:56;;;;;;;5.00;2.60;;;;;;;;;;5035530;28;20185;-79
2022/07/19 10:16:25;;;;;;;2.43;2.23;;;;;;;;;;5039145;28;20188;-78
2022/07/19 10:19:09;;;;;;;3.90;2.20;;;;;;;;;;5033579;28;20205;-79
2022/07/19 10:21:35;;;;;;;3.13;2.40;;;;;;;;;;5030405;28;20238;-79
2022/07/19 10:24:02;;;;;;;4.53;2.67;;;;;;;;;;5036619;28;20183;-78
2022/07/19 10:26:38;;;;;;;3.57;2.10;;;;;;;;;;5035029;28;20225;-78
2022/07/19 10:29:08;;;;;;;9.43;2.13;;;;;;;;;;5035493;28;20216;-78
2022/07/19 10:31:38;;;;;;;2.73;2.17;;;;;;;;;;5034956;28;20313;-78
2022/07/19 10:34:11;;;;;;;2.47;2.13;;;;;;;;;;5033907;28;20201;-78
2022/07/19 10:36:39;;;;;;;2.37;2.17;;;;;;;;;;5033433;28;20187;-78
2022/07/19 10:39:26;;;;;;;4.80;2.17;;;;;;;;;;5032177;28;20320;-79
2022/07/19 10:42:11;;;;;;;2.47;1.90;;;;;;;;;;5035447;28;20563;-78
2022/07/19 10:44:59;;;;;;;3.77;2.00;;;;;;;;;;5036398;28;20185;-77
2022/07/19 10:47:34;;;;;;;4.80;2.10;;;;;;;;;;5031972;28;21917;-76
2022/07/19 10:50:04;;;;;;;2.57;2.20;;;;;;;;;;5024951;28;20184;-75
2022/07/19 10:52:34;;;;;;;3.93;2.00;;;;;;;;;;5024406;28;20243;-75
2022/07/19 10:55:25;;;;;;;2.10;1.93;;;;;;;;;;5025008;28;20825;-75
2022/07/19 10:57:54;;;;;;;2.53;2.10;;;;;;;;;;5022657;28;20199;-75
2022/07/19 11:00:20;;;;;;;2.63;2.43;;;;;;;;;;5023059;28;21182;-75
2022/07/19 11:02:47;;;;;;;4.50;2.10;;;;;;;;;;5026930;28;20221;-75
2022/07/19 11:05:22;;;;;;;5.77;2.50;;;;;;;;;;5026741;28;20204;-75
2022/07/19 11:07:49;;;;;;;2.07;1.93;;;;;;;;;;5024526;28;20231;-76
2022/07/19 11:10:22;;;;;;;4.47;2.17;;;;;;;;;;5027838;28;20178;-74
2022/07/19 11:12:48;;;;;;;5.73;2.40;;;;;;;;;;5030462;28;20216;-75
2022/07/19 11:15:15;;;;;;;3.87;2.30;;;;;;;;;;5027622;28;20180;-76
2022/07/19 11:17:50;;;;;;;2.40;2.10;;;;;;;;;;5030047;28;20204;-76
2022/07/19 11:20:19;;;;;;;4.30;2.00;;;;;;;;;;5026782;28;20186;-76
2022/07/19 11:22:48;;;;;;;4.40;1.90;;;;;;;;;;5021206;28;20747;-76
2022/07/19 11:25:15;;;;;;;2.30;2.10;;;;;;;;;;5026705;28;20671;-76
2022/07/19 11:27:45;;;;;;;4.47;2.20;;;;;;;;;;5023429;28;20640;-75
2022/07/19 11:30:13;;;;;;;3.10;2.27;;;;;;;;;;5025403;28;20645;-73
2022/07/19 11:32:41;;;;;;;3.53;2.23;;;;;;;;;;5026124;28;20296;-76
2022/07/19 11:35:08;;;;;;;4.10;1.90;;;;;;;;;;5027222;28;20181;-78
2022/07/19 11:37:36;;;;;;;3.43;2.20;;;;;;;;;;5023563;28;20186;-76
2022/07/19 11:40:03;;;;;;;3.33;2.20;;;;;;;;;;5027726;28;20235;-76
2022/07/19 11:42:30;;;;;;;2.70;2.13;;;;;;;;;;5027337;28;20212;-75
2022/07/19 11:44:57;;;;;;;3.40;2.43;;;;;;;;;;5020744;28;20172;-75
2022/07/19 11:47:23;;;;;;;3.77;2.30;;;;;;;;;;5022621;28;20317;-74
2022/07/19 11:49:49;;;;;;;3.13;2.00;;;;;;;;;;5018528;28;20180;-74
2022/07/19 11:52:15;;;;;;;3.03;2.20;;;;;;;;;;5026717;28;20218;-74
2022/07/19 11:54:43;;;;;;;2.80;2.27;;;;;;;;;;5023916;28;20301;-75
2022/07/19 11:57:26;;;;;;;3.67;2.60;;;;;;;;;;5022927;28;20193;-75
2022/07/19 11:59:52;;;;;;;2.57;2.30;;;;;;;;;;5024204;28;20231;-75
2022/07/19 12:02:18;;;;;;;4.43;2.37;;;;;;;;;;5023824;28;20203;-75
2022/07/19 12:04:44;;;;;;;2.40;2.20;;;;;;;;;;5025670;28;20179;-76
2022/07/19 12:07:11;;;;;;;2.30;2.10;;;;;;;;;;5026585;28;20189;-76
2022/07/19 12:09:37;;;;;;;3.33;2.40;;;;;;;;;;5019423;28;20190;-75
2022/07/19 12:12:13;;;;;;;3.63;2.23;;;;;;;;;;5018732;28;20200;-74
2022/07/19 12:14:40;;;;;;;3.63;2.60;;;;;;;;;;5026954;28;20618;-76
2022/07/19 12:17:22;;;;;;;6.17;2.50;;;;;;;;;;5026221;28;20179;-76
2022/07/19 12:19:53;;;;;;;2.70;2.50;;;;;;;;;;5027327;28;20232;-75
2022/07/19 12:22:35;;;;;;;3.77;2.37;;;;;;;;;;5025283;28;20201;-76
2022/07/19 12:25:02;;;;;;;5.40;2.30;;;;;;;;;;5028020;28;20193;-76
2022/07/19 12:27:30;;;;;;;3.77;2.43;;;;;;;;;;5025636;28;20236;-75
2022/07/19 12:29:58;;;;;;;2.73;2.40;;;;;;;;;;5033407;28;20191;-76
2022/07/19 12:32:27;;;;;;;3.40;2.25;;;;;;;;;;5037415;28;20198;-75
2022/07/19 12:34:57;;;;;;;3.60;2.28;;;;;;;;;;5030803;28;20245;-76
2022/07/19 12:37:31;;;;;;;4.88;2.20;;;;;;;;;;5030230;28;20711;-76
2022/07/19 12:39:57;;;;;;;5.80;2.10;;;;;;;;;;5027900;28;20676;-76
2022/07/19 12:42:23;;;;;;;3.85;2.38;;;;;;;;;;5033269;28;20203;-76
2022/07/19 12:44:49;;;;;;;3.05;2.13;;;;;;;;;;5029431;28;20183;-76
2022/07/19 12:47:16;;;;;;;2.53;2.00;;;;;;;;;;5023304;28;20221;-76
2022/07/19 12:49:42;;;;;;;3.55;2.45;;;;;;;;;;5023091;28;20786;-76
2022/07/19 12:52:08;;;;;;;3.08;2.38;;;;;;;;;;5025499;28;20219;-76
2022/07/19 12:54:34;;;;;;;2.17;1.98;;;;;;;;;;5024649;28;20184;-75
2022/07/19 12:57:00;;;;;;;2.92;2.22;;;;;;;;;;5024117;28;20576;-76
2022/07/19 12:59:39;;;;;;;4.93;2.28;;;;;;;;;;5021925;28;20197;-77
2022/07/19 13:02:06;;;;;;;4.00;2.42;;;;;;;;;;5025012;28;20239;-77
2022/07/19 13:04:32;;;;;;;3.30;2.22;;;;;;;;;;5023107;28;20237;-77
2022/07/19 13:06:59;;;;;;;4.15;2.13;;;;;;;;;;5024297;28;20675;-77
2022/07/19 13:09:25;;;;;;;4.55;2.33;;;;;;;;;;5022890;28;20186;-77
2022/07/19 13:11:51;;;;;;;2.00;1.88;;;;;;;;;;5025809;28;20208;-76
2022/07/19 13:14:17;;;;;;;4.00;1.90;;;;;;;;;;5028840;28;20183;-76
2022/07/19 13:16:43;;;;;;;7.00;2.55;;;;;;;;;;5025030;28;20186;-77
2022/07/19 13:19:10;;;;;;;4.55;2.40;;;;;;;;;;5030941;28;20190;-76
2022/07/19 13:21:36;;;;;;;5.43;2.10;;;;;;;;;;5022653;28;20232;-77
2022/07/19 13:24:02;;;;;;;3.70;2.47;;;;;;;;;;5020520;28;20195;-77
2022/07/19 13:26:28;;;;;;;4.03;1.92;;;;;;;;;;5022559;28;20272;-81
2022/07/19 13:28:55;;;;;;;3.92;2.40;;;;;;;;;;5020717;28;20210;-76
2022/07/19 13:31:21;;;;;;;3.53;2.35;;;;;;;;;;5032775;28;20206;-77
2022/07/19 13:33:47;;;;;;;3.90;2.17;;;;;;;;;;5022837;28;20580;-77
2022/07/19 13:36:14;;;;;;;3.67;2.30;;;;;;;;;;5027277;28;20209;-77
2022/07/19 13:38:41;;;;;;;2.70;2.40;;;;;;;;;;5026940;28;20694;-77
2022/07/19 13:41:08;;;;;;;5.82;2.33;;;;;;;;;;5028050;28;20237;-77
2022/07/19 13:43:34;;;;;;;3.75;2.38;;;;;;;;;;5024727;28;20179;-77
2022/07/19 13:46:01;;;;;;;6.93;2.30;;;;;;;;;;5022593;28;20179;-77
2022/07/19 13:48:27;;;;;;;3.63;2.30;;;;;;;;;;5028598;28;20706;-77
2022/07/19 13:50:53;;;;;;;2.92;2.28;;;;;;;;;;5028349;28;20226;-77
2022/07/19 13:53:20;;;;;;;5.78;2.30;;;;;;;;;;5030828;28;20209;-78
2022/07/19 13:55:46;;;;;;;4.18;2.10;;;;;;;;;;5026770;28;20210;-77
2022/07/19 13:58:12;;;;;;;5.22;2.55;;;;;;;;;;5026225;28;20666;-77
2022/07/19 14:00:38;;;;;;;5.97;2.53;;;;;;;;;;5024082;28;20194;-77
2022/07/19 14:03:04;;;;;;;3.78;2.58;;;;;;;;;;5025880;28;20701;-77
2022/07/19 14:05:31;;;;;;;3.55;2.50;;;;;;;;;;5028583;28;20210;-77
2022/07/19 14:07:57;;;;;;;4.03;2.90;;;;;;;;;;5023102;28;20265;-76
2022/07/19 14:10:23;;;;;;;3.15;2.83;;;;;;;;;;5020192;28;20194;-76
2022/07/19 14:12:50;;;;;;;3.25;2.60;;;;;;;;;;5023531;28;20608;-76
2022/07/19 14:15:16;;;;;;;2.72;2.53;;;;;;;;;;5020163;28;20217;-77
2022/07/19 14:17:42;;;;;;;3.75;2.60;;;;;;;;;;5024670;28;20186;-77
2022/07/19 14:20:09;;;;;;;3.60;2.53;;;;;;;;;;5022710;28;20623;-78
2022/07/19 14:22:35;;;;;;;3.28;2.65;;;;;;;;;;5020141;28;20600;-77
2022/07/19 14:25:02;;;;;;;3.20;2.58;;;;;;;;;;5021247;28;20179;-77
2022/07/19 14:27:28;;;;;;;2.88;2.58;;;;;;;;;;5018491;28;20269;-77
2022/07/19 14:29:54;;;;;;;3.60;2.70;;;;;;;;;;5021562;28;20191;-77
2022/07/19 14:32:21;;;;;;;4.78;2.65;;;;;;;;;;5016569;28;20202;-77
2022/07/19 14:34:47;;;;;;;3.22;2.72;;;;;;;;;;5019133;28;20193;-77
2022/07/19 14:37:13;;;;;;;3.78;3.00;;;;;;;;;;5021927;28;20262;-77
2022/07/19 14:39:39;;;;;;;6.10;3.22;;;;;;;;;;5019425;28;20183;-78
2022/07/19 14:42:05;;;;;;;4.25;2.95;;;;;;;;;;5021219;28;20195;-78
2022/07/19 14:44:32;;;;;;;3.85;2.88;;;;;;;;;;5021838;28;20186;-77
2022/07/19 14:46:58;;;;;;;4.32;3.17;;;;;;;;;;5020593;28;20183;-77
2022/07/19 14:49:24;;;;;;;6.60;3.28;;;;;;;;;;5018106;28;20587;-78